Aviation Digital Data Service (ADDS)

Output produced by METARs form (2117 UTC 16 February 2019)
found at http://www.aviationweather.gov/metar/data/
 
METAR text: MHLM 162100Z 01011KT 9999 FEW030 34/23 Q1006 A2971 NOSIG
Conditions at: MHLM (LA MESA/PEDRO S , HN) observed 2100 UTC 16 February 2019
Temperature: 34.0°C (93°F)
Dewpoint: 23.0°C (73°F) [RH = 53%]
Pressure (altimeter): 29.70 inches Hg (1006.0 mb)
Winds: from the N (10 degrees) at 13 MPH (11 knots; 5.7 m/s)
Visibility: 6 or more miles (10+ km)
Ceiling: at least 12,000 feet AGL
Clouds: few clouds at 3000 feet AGL
Weather: no significant weather observed at this time

METAR text: MHLM 162000Z 07010KT 9999 FEW030 33/22 Q1007 A2974 NOSIG
Conditions at: MHLM (LA MESA/PEDRO S , HN) observed 2000 UTC 16 February 2019
Temperature: 33.0°C (91°F)
Dewpoint: 22.0°C (72°F) [RH = 53%]
Pressure (altimeter): 29.73 inches Hg (1007.0 mb)
Winds: from the ENE (70 degrees) at 12 MPH (10 knots; 5.1 m/s)
Visibility: 6 or more miles (10+ km)
Ceiling: at least 12,000 feet AGL
Clouds: few clouds at 3000 feet AGL
Weather: no significant weather observed at this time

METAR text: MHLM 161900Z 06007KT 9999 FEW030 33/22 Q1008 A2977 NOSIG
Conditions at: MHLM (LA MESA/PEDRO S , HN) observed 1900 UTC 16 February 2019
Temperature: 33.0°C (91°F)
Dewpoint: 22.0°C (72°F) [RH = 53%]
Pressure (altimeter): 29.76 inches Hg (1008.0 mb)
Winds: from the ENE (60 degrees) at 8 MPH (7 knots; 3.6 m/s)
Visibility: 6 or more miles (10+ km)
Ceiling: at least 12,000 feet AGL
Clouds: few clouds at 3000 feet AGL
Weather: no significant weather observed at this time

METAR text: MHLM 161800Z 19006KT 9999 FEW030 32/21 Q1009 A2980 NOSIG
Conditions at: MHLM (LA MESA/PEDRO S , HN) observed 1800 UTC 16 February 2019
Temperature: 32.0°C (90°F)
Dewpoint: 21.0°C (70°F) [RH = 52%]
Pressure (altimeter): 29.79 inches Hg (1009.0 mb)
Winds: from the S (190 degrees) at 7 MPH (6 knots; 3.1 m/s)
Visibility: 6 or more miles (10+ km)
Ceiling: at least 12,000 feet AGL
Clouds: few clouds at 3000 feet AGL
Weather: no significant weather observed at this time

METAR text: MHLM 161700Z 22002KT 9999 FEW028 31/21 Q1011 A2986 NOSIG
Conditions at: MHLM (LA MESA/PEDRO S , HN) observed 1700 UTC 16 February 2019
Temperature: 31.0°C (88°F)
Dewpoint: 21.0°C (70°F) [RH = 55%]
Pressure (altimeter): 29.85 inches Hg (1011.0 mb)
Winds: from the SW (220 degrees) at 2 MPH (2 knots; 1.0 m/s)
Visibility: 6 or more miles (10+ km)
Ceiling: at least 12,000 feet AGL
Clouds: few clouds at 2800 feet AGL
Weather: no significant weather observed at this time

METAR text: MHLM 161600Z 21007KT 9999 FEW028 29/21 Q1012 A2989
Conditions at: MHLM (LA MESA/PEDRO S , HN) observed 1600 UTC 16 February 2019
Temperature: 29.0°C (84°F)
Dewpoint: 21.0°C (70°F) [RH = 62%]
Pressure (altimeter): 29.88 inches Hg (1012.0 mb)
Winds: from the SSW (210 degrees) at 8 MPH (7 knots; 3.6 m/s)
Visibility: 6 or more miles (10+ km)
Ceiling: at least 12,000 feet AGL
Clouds: few clouds at 2800 feet AGL
Weather: no significant weather observed at this time

METAR text: MHLM 161500Z 04003KT 9999 FEW026 27/22 Q1012 A2989 NOSIG
Conditions at: MHLM (LA MESA/PEDRO S , HN) observed 1500 UTC 16 February 2019
Temperature: 27.0°C (81°F)
Dewpoint: 22.0°C (72°F) [RH = 74%]
Pressure (altimeter): 29.88 inches Hg (1012.0 mb)
Winds: from the NE (40 degrees) at 3 MPH (3 knots; 1.5 m/s)
Visibility: 6 or more miles (10+ km)
Ceiling: at least 12,000 feet AGL
Clouds: few clouds at 2600 feet AGL
Weather: no significant weather observed at this time

METAR text: MHLM 161400Z 24002KT 9999 FEW026 24/21 Q1012 A2986 NOSIG
Conditions at: MHLM (LA MESA/PEDRO S , HN) observed 1400 UTC 16 February 2019
Temperature: 24.0°C (75°F)
Dewpoint: 21.0°C (70°F) [RH = 83%]
Pressure (altimeter): 29.88 inches Hg (1012.0 mb)
Winds: from the WSW (240 degrees) at 2 MPH (2 knots; 1.0 m/s)
Visibility: 6 or more miles (10+ km)
Ceiling: at least 12,000 feet AGL
Clouds: few clouds at 2600 feet AGL
Weather: no significant weather observed at this time

METAR text: MHLM 161300Z 24002KT 9999 FEW026 BKN080 22/21 Q1012 A2989 NOSIG
Conditions at: MHLM (LA MESA/PEDRO S , HN) observed 1300 UTC 16 February 2019
Temperature: 22.0°C (72°F)
Dewpoint: 21.0°C (70°F) [RH = 94%]
Pressure (altimeter): 29.88 inches Hg (1012.0 mb)
Winds: from the WSW (240 degrees) at 2 MPH (2 knots; 1.0 m/s)
Visibility: 6 or more miles (10+ km)
Ceiling: 8000 feet AGL
Clouds: few clouds at 2600 feet AGL
broken clouds at 8000 feet AGL
Weather: no significant weather observed at this time

METAR text: MHLM 161200Z 23002KT 9999 FEW024 SCT080 22/21 Q1011 A2986 NOSIG
Conditions at: MHLM (LA MESA/PEDRO S , HN) observed 1200 UTC 16 February 2019
Temperature: 22.0°C (72°F)
Dewpoint: 21.0°C (70°F) [RH = 94%]
Pressure (altimeter): 29.85 inches Hg (1011.0 mb)
Winds: from the SW (230 degrees) at 2 MPH (2 knots; 1.0 m/s)
Visibility: 6 or more miles (10+ km)
Ceiling: at least 12,000 feet AGL
Clouds: few clouds at 2400 feet AGL
scattered clouds at 8000 feet AGL
Weather: no significant weather observed at this time

METAR text: MHLM 161100Z 00000KT 9999 FEW024 BKN080 23/21 Q1011 A2986 NOSIG
Conditions at: MHLM (LA MESA/PEDRO S , HN) observed 1100 UTC 16 February 2019
Temperature: 23.0°C (73°F)
Dewpoint: 21.0°C (70°F) [RH = 89%]
Pressure (altimeter): 29.85 inches Hg (1011.0 mb)
Winds: calm
Visibility: 6 or more miles (10+ km)
Ceiling: 8000 feet AGL
Clouds: few clouds at 2400 feet AGL
broken clouds at 8000 feet AGL
Weather: no significant weather observed at this time

METAR text: MHLM 161000Z 20002KT 9999 FEW024 BKN080 23/21 Q1011 A2986 NOSIG
Conditions at: MHLM (LA MESA/PEDRO S , HN) observed 1000 UTC 16 February 2019
Temperature: 23.0°C (73°F)
Dewpoint: 21.0°C (70°F) [RH = 89%]
Pressure (altimeter): 29.85 inches Hg (1011.0 mb)
Winds: from the SSW (200 degrees) at 2 MPH (2 knots; 1.0 m/s)
Visibility: 6 or more miles (10+ km)
Ceiling: 8000 feet AGL
Clouds: few clouds at 2400 feet AGL
broken clouds at 8000 feet AGL
Weather: no significant weather observed at this time

METAR text: MHLM 160900Z 24002KT 9999 FEW024 BKN080 22/21 Q1011 A2986 NOSIG
Conditions at: MHLM (LA MESA/PEDRO S , HN) observed 0900 UTC 16 February 2019
Temperature: 22.0°C (72°F)
Dewpoint: 21.0°C (70°F) [RH = 94%]
Pressure (altimeter): 29.85 inches Hg (1011.0 mb)
Winds: from the WSW (240 degrees) at 2 MPH (2 knots; 1.0 m/s)
Visibility: 6 or more miles (10+ km)
Ceiling: 8000 feet AGL
Clouds: few clouds at 2400 feet AGL
broken clouds at 8000 feet AGL
Weather: no significant weather observed at this time

METAR text: MHLM 160800Z 22002KT 9999 FEW024 BKN080 23/22 Q1012 A2989 NOSIG
Conditions at: MHLM (LA MESA/PEDRO S , HN) observed 0800 UTC 16 February 2019
Temperature: 23.0°C (73°F)
Dewpoint: 22.0°C (72°F) [RH = 94%]
Pressure (altimeter): 29.88 inches Hg (1012.0 mb)
Winds: from the SW (220 degrees) at 2 MPH (2 knots; 1.0 m/s)
Visibility: 6 or more miles (10+ km)
Ceiling: 8000 feet AGL
Clouds: few clouds at 2400 feet AGL
broken clouds at 8000 feet AGL
Weather: no significant weather observed at this time

METAR text: MHLM 160700Z 10003KT 9999 FEW024 BKN080 23/21 Q1012 A2989 NOSIG
Conditions at: MHLM (LA MESA/PEDRO S , HN) observed 0700 UTC 16 February 2019
Temperature: 23.0°C (73°F)
Dewpoint: 21.0°C (70°F) [RH = 89%]
Pressure (altimeter): 29.88 inches Hg (1012.0 mb)
Winds: from the E (100 degrees) at 3 MPH (3 knots; 1.5 m/s)
Visibility: 6 or more miles (10+ km)
Ceiling: 8000 feet AGL
Clouds: few clouds at 2400 feet AGL
broken clouds at 8000 feet AGL
Weather: no significant weather observed at this time

METAR text: MHLM 160600Z 00000KT 9999 FEW024 BKN080 24/22 Q1013 A2992 NOSIG
Conditions at: MHLM (LA MESA/PEDRO S , HN) observed 0600 UTC 16 February 2019
Temperature: 24.0°C (75°F)
Dewpoint: 22.0°C (72°F) [RH = 89%]
Pressure (altimeter): 29.91 inches Hg (1013.0 mb)
Winds: calm
Visibility: 6 or more miles (10+ km)
Ceiling: 8000 feet AGL
Clouds: few clouds at 2400 feet AGL
broken clouds at 8000 feet AGL
Weather: no significant weather observed at this time

METAR text: MHLM 160500Z 30002KT 9999 FEW024 BKN080 24/22 Q1013 A2992 NOSIG
Conditions at: MHLM (LA MESA/PEDRO S , HN) observed 0500 UTC 16 February 2019
Temperature: 24.0°C (75°F)
Dewpoint: 22.0°C (72°F) [RH = 89%]
Pressure (altimeter): 29.91 inches Hg (1013.0 mb)
Winds: from the WNW (300 degrees) at 2 MPH (2 knots; 1.0 m/s)
Visibility: 6 or more miles (10+ km)
Ceiling: 8000 feet AGL
Clouds: few clouds at 2400 feet AGL
broken clouds at 8000 feet AGL
Weather: no significant weather observed at this time

METAR text: MHLM 160400Z 35004KT 9999 FEW024 SCT080 24/21 Q1013 A2992 NOSIG
Conditions at: MHLM (LA MESA/PEDRO S , HN) observed 0400 UTC 16 February 2019
Temperature: 24.0°C (75°F)
Dewpoint: 21.0°C (70°F) [RH = 83%]
Pressure (altimeter): 29.91 inches Hg (1013.0 mb)
Winds: from the N (350 degrees) at 5 MPH (4 knots; 2.1 m/s)
Visibility: 6 or more miles (10+ km)
Ceiling: at least 12,000 feet AGL
Clouds: few clouds at 2400 feet AGL
scattered clouds at 8000 feet AGL
Weather: no significant weather observed at this time

METAR text: MHLM 160300Z 35004KT 9999 FEW024 24/21 Q1013 A2992 NOSIG
Conditions at: MHLM (LA MESA/PEDRO S , HN) observed 0300 UTC 16 February 2019
Temperature: 24.0°C (75°F)
Dewpoint: 21.0°C (70°F) [RH = 83%]
Pressure (altimeter): 29.91 inches Hg (1013.0 mb)
Winds: from the N (350 degrees) at 5 MPH (4 knots; 2.1 m/s)
Visibility: 6 or more miles (10+ km)
Ceiling: at least 12,000 feet AGL
Clouds: few clouds at 2400 feet AGL
Weather: no significant weather observed at this time

METAR text: MHLM 160200Z 35003KT 9999 FEW024 24/21 Q1012 A2989 NOSIG
Conditions at: MHLM (LA MESA/PEDRO S , HN) observed 0200 UTC 16 February 2019
Temperature: 24.0°C (75°F)
Dewpoint: 21.0°C (70°F) [RH = 83%]
Pressure (altimeter): 29.88 inches Hg (1012.0 mb)
Winds: from the N (350 degrees) at 3 MPH (3 knots; 1.5 m/s)
Visibility: 6 or more miles (10+ km)
Ceiling: at least 12,000 feet AGL
Clouds: few clouds at 2400 feet AGL
Weather: no significant weather observed at this time

METAR text: MHLM 160100Z 02006KT 9999 FEW026 25/21 Q1011 A2986 NOSIG
Conditions at: MHLM (LA MESA/PEDRO S , HN) observed 0100 UTC 16 February 2019
Temperature: 25.0°C (77°F)
Dewpoint: 21.0°C (70°F) [RH = 79%]
Pressure (altimeter): 29.85 inches Hg (1011.0 mb)
Winds: from the NNE (20 degrees) at 7 MPH (6 knots; 3.1 m/s)
Visibility: 6 or more miles (10+ km)
Ceiling: at least 12,000 feet AGL
Clouds: few clouds at 2600 feet AGL
Weather: no significant weather observed at this time

METAR text: MHLM 160000Z 03008KT 9999 FEW026 26/21 Q1011 A2986 NOSIG
Conditions at: MHLM (LA MESA/PEDRO S , HN) observed 0000 UTC 16 February 2019
Temperature: 26.0°C (79°F)
Dewpoint: 21.0°C (70°F) [RH = 74%]
Pressure (altimeter): 29.85 inches Hg (1011.0 mb)
Winds: from the NNE (30 degrees) at 9 MPH (8 knots; 4.1 m/s)
Visibility: 6 or more miles (10+ km)
Ceiling: at least 12,000 feet AGL
Clouds: few clouds at 2600 feet AGL
Weather: no significant weather observed at this time

METAR text: MHLM 152300Z 04008KT 9999 FEW028 28/21 Q1010 A2983 NOSIG
Conditions at: MHLM (LA MESA/PEDRO S , HN) observed 2300 UTC 15 February 2019
Temperature: 28.0°C (82°F)
Dewpoint: 21.0°C (70°F) [RH = 66%]
Pressure (altimeter): 29.82 inches Hg (1010.0 mb)
Winds: from the NE (40 degrees) at 9 MPH (8 knots; 4.1 m/s)
Visibility: 6 or more miles (10+ km)
Ceiling: at least 12,000 feet AGL
Clouds: few clouds at 2800 feet AGL
Weather: no significant weather observed at this time

METAR text: MHLM 152100Z 07006KT 9999 SCT025 SCT080 30/20 Q1010 A2983 NOSIG
Conditions at: MHLM (LA MESA/PEDRO S , HN) observed 2100 UTC 15 February 2019
Temperature: 30.0°C (86°F)
Dewpoint: 20.0°C (68°F) [RH = 55%]
Pressure (altimeter): 29.82 inches Hg (1010.0 mb)
Winds: from the ENE (70 degrees) at 7 MPH (6 knots; 3.1 m/s)
Visibility: 6 or more miles (10+ km)
Ceiling: at least 12,000 feet AGL
Clouds: scattered clouds at 2500 feet AGL
scattered clouds at 8000 feet AGL
Weather: no significant weather observed at this time

METAR text: MHLM 151800Z 15003KT 9999 FEW024 BKN080 28/21 Q1014 A2995 NOSIG
Conditions at: MHLM (LA MESA/PEDRO S , HN) observed 1800 UTC 15 February 2019
Temperature: 28.0°C (82°F)
Dewpoint: 21.0°C (70°F) [RH = 66%]
Pressure (altimeter): 29.94 inches Hg (1014.0 mb)
Winds: from the SSE (150 degrees) at 3 MPH (3 knots; 1.5 m/s)
Visibility: 6 or more miles (10+ km)
Ceiling: 8000 feet AGL
Clouds: few clouds at 2400 feet AGL
broken clouds at 8000 feet AGL
Weather: no significant weather observed at this time

METAR text: MHLM 151700Z 20004KT 9999 FEW024 BKN080 26/21 Q1015 A2997 NOSIG
Conditions at: MHLM (LA MESA/PEDRO S , HN) observed 1700 UTC 15 February 2019
Temperature: 26.0°C (79°F)
Dewpoint: 21.0°C (70°F) [RH = 74%]
Pressure (altimeter): 29.97 inches Hg (1015.0 mb)
Winds: from the SSW (200 degrees) at 5 MPH (4 knots; 2.1 m/s)
Visibility: 6 or more miles (10+ km)
Ceiling: 8000 feet AGL
Clouds: few clouds at 2400 feet AGL
broken clouds at 8000 feet AGL
Weather: no significant weather observed at this time

METAR text: MHLM 151600Z 27004KT 9999 FEW022 BKN080 24/21 Q1016 A3000 NOSIG
Conditions at: MHLM (LA MESA/PEDRO S , HN) observed 1600 UTC 15 February 2019
Temperature: 24.0°C (75°F)
Dewpoint: 21.0°C (70°F) [RH = 83%]
Pressure (altimeter): 30.00 inches Hg (1016.0 mb)
Winds: from the W (270 degrees) at 5 MPH (4 knots; 2.1 m/s)
Visibility: 6 or more miles (10+ km)
Ceiling: 8000 feet AGL
Clouds: few clouds at 2200 feet AGL
broken clouds at 8000 feet AGL
Weather: no significant weather observed at this time

METAR text: MHLM 151500Z 28005KT 9999 FEW022 BKN080 23/21 Q1018 A2997 NOSIG
Conditions at: MHLM (LA MESA/PEDRO S , HN) observed 1500 UTC 15 February 2019
Temperature: 23.0°C (73°F)
Dewpoint: 21.0°C (70°F) [RH = 89%]
Pressure (altimeter): 30.06 inches Hg (1018.0 mb)
Winds: from the W (280 degrees) at 6 MPH (5 knots; 2.6 m/s)
Visibility: 6 or more miles (10+ km)
Ceiling: 8000 feet AGL
Clouds: few clouds at 2200 feet AGL
broken clouds at 8000 feet AGL
Weather: no significant weather observed at this time

METAR text: MHLM 151400Z 26005KT 9999 FEW020 BKN080 21/20 Q1015 A2997 NOSIG
Conditions at: MHLM (LA MESA/PEDRO S , HN) observed 1400 UTC 15 February 2019
Temperature: 21.0°C (70°F)
Dewpoint: 20.0°C (68°F) [RH = 94%]
Pressure (altimeter): 29.97 inches Hg (1015.0 mb)
Winds: from the W (260 degrees) at 6 MPH (5 knots; 2.6 m/s)
Visibility: 6 or more miles (10+ km)
Ceiling: 8000 feet AGL
Clouds: few clouds at 2000 feet AGL
broken clouds at 8000 feet AGL
Weather: no significant weather observed at this time

METAR text: MHLM 151300Z 18003KT 9999 FEW020 19/19 Q1014 A2995 NOSIG
Conditions at: MHLM (LA MESA/PEDRO S , HN) observed 1300 UTC 15 February 2019
Temperature: 19.0°C (66°F)
Dewpoint: 19.0°C (66°F) [RH = 100%]
Pressure (altimeter): 29.94 inches Hg (1014.0 mb)
Winds: from the S (180 degrees) at 3 MPH (3 knots; 1.5 m/s)
Visibility: 6 or more miles (10+ km)
Ceiling: at least 12,000 feet AGL
Clouds: few clouds at 2000 feet AGL
Weather: no significant weather observed at this time

METAR text: MHLM 151200Z 00000KT 9999 FEW022 20/19 Q1013 A2992 NOSIG
Conditions at: MHLM (LA MESA/PEDRO S , HN) observed 1200 UTC 15 February 2019
Temperature: 20.0°C (68°F)
Dewpoint: 19.0°C (66°F) [RH = 94%]
Pressure (altimeter): 29.91 inches Hg (1013.0 mb)
Winds: calm
Visibility: 6 or more miles (10+ km)
Ceiling: at least 12,000 feet AGL
Clouds: few clouds at 2200 feet AGL
Weather: no significant weather observed at this time

METAR text: MHLM 151100Z 24005KT 9999 FEW022 20/20 Q1013 A2992NOSIG
Conditions at: MHLM (LA MESA/PEDRO S , HN) observed 1100 UTC 15 February 2019
Temperature: 20.0°C (68°F)
Dewpoint: 20.0°C (68°F) [RH = 100%]
Pressure (altimeter): 29.91 inches Hg (1013.0 mb)
Winds: from the WSW (240 degrees) at 6 MPH (5 knots; 2.6 m/s)
Visibility: 6 or more miles (10+ km)
Ceiling: at least 12,000 feet AGL
Clouds: few clouds at 2200 feet AGL
Weather: no significant weather observed at this time

METAR text: MHLM 151000Z 22005KT 9999 FEW022 20/20 Q1013 A2995 NOSIG
Conditions at: MHLM (LA MESA/PEDRO S , HN) observed 1000 UTC 15 February 2019
Temperature: 20.0°C (68°F)
Dewpoint: 20.0°C (68°F) [RH = 100%]
Pressure (altimeter): 29.91 inches Hg (1013.0 mb)
Winds: from the SW (220 degrees) at 6 MPH (5 knots; 2.6 m/s)
Visibility: 6 or more miles (10+ km)
Ceiling: at least 12,000 feet AGL
Clouds: few clouds at 2200 feet AGL
Weather: no significant weather observed at this time

Forecast for: MHLM (LA MESA/PEDRO S , HN)
Text: TAF MHLM 161600Z 1618/1718 04008KT 9999 FEW028 TX33/1620Z TN22/1712Z
Forecast period: 1800 UTC 16 February 2019 to 0300 UTC 17 February 2019
Forecast type: FROM: standard forecast or significant change
Winds: from the NE (40 degrees) at 9 MPH (8 knots; 4.1 m/s)
Visibility: 6 or more miles 10+ km)
Ceiling: at least 12,000 feet AGL
Clouds: few clouds at 2800 feet AGL
Weather: no significant weather forecast for this period
Text: BECMG 1703/1705 24003KT
Forecast period: 0300 to 1800 UTC 17 February 2019
Forecast type: BECOMING: Conditions expected to become as follows by 0500 UTC 17 February 2019
Winds: from the WSW (240 degrees) at 3 MPH (3 knots; 1.5 m/s)
Visibility: 6 or more miles 10+ km)
Ceiling: at least 12,000 feet AGL
Clouds: few clouds at 2800 feet AGL
Weather: no significant weather forecast for this period